Time,TemperatureF,DewpointF,PressureIn,WindDirection,WindDirectionDegrees,WindSpeedMPH,WindSpeedGustMPH,Humidity,HourlyPrecipIn,Conditions,Clouds,dailyrainin,SoftwareType,DateUTC
2013-01-09 00:04:00,17.5,15.3,30.41,SW,229,2.0,4.0,91,0.00,,,0.00,Wunderground v.1.15,2013-01-09 05:04:00,
2013-01-09 00:08:00,18.1,16.2,30.41,SW,229,3.0,4.0,92,0.00,,,0.00,Wunderground v.1.15,2013-01-09 05:08:00,
2013-01-09 00:14:00,17.5,15.3,30.41,SW,229,3.0,3.0,91,0.00,,,0.00,Wunderground v.1.15,2013-01-09 05:14:00,
2013-01-09 00:20:00,17.3,15.1,30.40,SW,229,2.0,2.0,91,0.00,,,0.00,Wunderground v.1.15,2013-01-09 05:20:00,
2013-01-09 00:24:00,17.1,14.7,30.40,SW,229,1.0,2.0,90,0.00,,,0.00,Wunderground v.1.15,2013-01-09 05:24:00,
2013-01-09 00:30:00,16.9,14.5,30.40,SW,229,0.0,0.0,90,0.00,,,0.00,Wunderground v.1.15,2013-01-09 05:30:00,
2013-01-09 00:36:00,16.8,14.6,30.40,SW,229,0.0,0.0,91,0.00,,,0.00,Wunderground v.1.15,2013-01-09 05:36:00,
2013-01-09 00:42:00,16.8,14.6,30.40,SW,229,0.0,2.0,91,0.00,,,0.00,Wunderground v.1.15,2013-01-09 05:42:00,
2013-01-09 00:48:00,16.7,14.5,30.41,SW,229,0.0,2.0,91,0.00,,,0.00,Wunderground v.1.15,2013-01-09 05:48:00,
2013-01-09 00:54:00,16.7,14.5,30.41,SW,229,1.0,1.0,91,0.00,,,0.00,Wunderground v.1.15,2013-01-09 05:54:00,
2013-01-09 01:00:00,16.6,14.4,30.40,SW,229,1.0,2.0,91,0.00,,,0.00,Wunderground v.1.15,2013-01-09 06:00:00,
2013-01-09 01:06:00,16.6,14.4,30.41,SW,229,1.0,2.0,91,0.00,,,0.00,Wunderground v.1.15,2013-01-09 06:06:00,
2013-01-09 01:12:00,16.3,13.9,30.41,SW,229,1.0,2.0,90,0.00,,,0.00,Wunderground v.1.15,2013-01-09 06:12:00,
2013-01-09 01:18:00,16.2,13.8,30.41,SW,217,3.0,4.0,90,0.00,,,0.00,Wunderground v.1.15,2013-01-09 06:18:00,
2013-01-09 01:24:00,16.4,14.2,30.41,SW,217,3.0,3.0,91,0.00,,,0.00,Wunderground v.1.15,2013-01-09 06:24:00,
2013-01-09 01:30:00,16.2,13.8,30.40,SW,217,0.0,0.0,90,0.00,,,0.00,Wunderground v.1.15,2013-01-09 06:30:00,
2013-01-09 01:36:00,16.0,13.8,30.40,SW,217,0.0,0.0,91,0.00,,,0.00,Wunderground v.1.15,2013-01-09 06:36:00,
2013-01-09 01:42:00,16.1,13.9,30.40,SW,217,0.0,0.0,91,0.00,,,0.00,Wunderground v.1.15,2013-01-09 06:42:00,
2013-01-09 01:48:00,16.2,14.0,30.40,SW,217,0.0,0.0,91,0.00,,,0.00,Wunderground v.1.15,2013-01-09 06:48:00,
2013-01-09 01:54:00,16.6,14.4,30.40,SW,217,0.0,1.0,91,0.00,,,0.00,Wunderground v.1.15,2013-01-09 06:54:00,
2013-01-09 02:00:00,16.4,14.2,30.39,SW,217,1.0,3.0,91,0.00,,,0.00,Wunderground v.1.15,2013-01-09 07:00:00,
2013-01-09 02:06:00,16.4,14.2,30.39,SW,219,2.0,3.0,91,0.00,,,0.00,Wunderground v.1.15,2013-01-09 07:06:00,
2013-01-09 02:12:00,16.2,14.0,30.39,SW,219,1.0,1.0,91,0.00,,,0.00,Wunderground v.1.15,2013-01-09 07:12:00,
2013-01-09 02:18:00,15.9,13.5,30.39,SW,219,0.0,1.0,90,0.00,,,0.00,Wunderground v.1.15,2013-01-09 07:18:00,
2013-01-09 02:24:00,15.6,13.2,30.39,SW,219,0.0,0.0,90,0.00,,,0.00,Wunderground v.1.15,2013-01-09 07:24:00,
2013-01-09 02:30:00,15.5,13.1,30.39,SW,219,0.0,0.0,90,0.00,,,0.00,Wunderground v.1.15,2013-01-09 07:30:00,
2013-01-09 02:36:00,15.5,13.3,30.39,SW,219,0.0,0.0,91,0.00,,,0.00,Wunderground v.1.15,2013-01-09 07:36:00,
2013-01-09 02:42:00,15.5,13.3,30.39,SW,219,0.0,0.0,91,0.00,,,0.00,Wunderground v.1.15,2013-01-09 07:42:00,
2013-01-09 02:48:00,15.4,13.0,30.39,SW,219,0.0,2.0,90,0.00,,,0.00,Wunderground v.1.15,2013-01-09 07:48:00,
2013-01-09 02:54:00,15.5,13.3,30.38,SW,219,0.0,1.0,91,0.00,,,0.00,Wunderground v.1.15,2013-01-09 07:54:00,
2013-01-09 03:00:00,15.6,13.4,30.38,SW,223,1.0,2.0,91,0.00,,,0.00,Wunderground v.1.15,2013-01-09 08:00:00,
2013-01-09 03:06:00,15.8,13.6,30.38,SW,223,2.0,2.0,91,0.00,,,0.00,Wunderground v.1.15,2013-01-09 08:06:00,
2013-01-09 03:12:00,16.0,13.8,30.38,SW,223,2.0,2.0,91,0.00,,,0.00,Wunderground v.1.15,2013-01-09 08:12:00,
2013-01-09 03:18:00,16.2,14.0,30.39,SW,228,3.0,4.0,91,0.00,,,0.00,Wunderground v.1.15,2013-01-09 08:18:00,
2013-01-09 03:24:00,16.7,14.8,30.39,SW,217,4.0,5.0,92,0.00,,,0.00,Wunderground v.1.15,2013-01-09 08:24:00,
2013-01-09 03:30:00,17.3,15.4,30.39,SW,218,5.0,5.0,92,0.00,,,0.00,Wunderground v.1.15,2013-01-09 08:30:00,
2013-01-09 03:36:00,18.0,16.1,30.40,SW,225,5.0,6.0,92,0.00,,,0.00,Wunderground v.1.15,2013-01-09 08:36:00,
2013-01-09 03:42:00,17.4,15.2,30.40,SW,225,3.0,3.0,91,0.00,,,0.00,Wunderground v.1.15,2013-01-09 08:42:00,
2013-01-09 03:48:00,17.0,14.8,30.39,SW,225,2.0,3.0,91,0.00,,,0.00,Wunderground v.1.15,2013-01-09 08:48:00,
2013-01-09 03:54:00,16.8,14.6,30.39,SW,225,1.0,2.0,91,0.00,,,0.00,Wunderground v.1.15,2013-01-09 08:54:00,
2013-01-09 04:00:00,16.6,14.4,30.39,SW,225,1.0,2.0,91,0.00,,,0.00,Wunderground v.1.15,2013-01-09 09:00:00,
2013-01-09 04:06:00,16.3,13.9,30.39,SW,225,2.0,3.0,90,0.00,,,0.00,Wunderground v.1.15,2013-01-09 09:06:00,
2013-01-09 04:12:00,16.1,13.7,30.39,SW,225,2.0,3.0,90,0.00,,,0.00,Wunderground v.1.15,2013-01-09 09:12:00,
2013-01-09 04:18:00,16.0,13.8,30.39,SW,220,2.0,4.0,91,0.00,,,0.00,Wunderground v.1.15,2013-01-09 09:18:00,
2013-01-09 04:24:00,16.4,14.2,30.38,SW,228,3.0,4.0,91,0.00,,,0.00,Wunderground v.1.15,2013-01-09 09:24:00,
2013-01-09 04:30:00,16.1,13.9,30.39,SW,225,4.0,4.0,91,0.00,,,0.00,Wunderground v.1.15,2013-01-09 09:30:00,
2013-01-09 04:36:00,15.7,13.3,30.38,SW,224,4.0,4.0,90,0.00,,,0.00,Wunderground v.1.15,2013-01-09 09:36:00,
2013-01-09 04:42:00,15.4,13.0,30.38,SW,226,4.0,4.0,90,0.00,,,0.00,Wunderground v.1.15,2013-01-09 09:42:00,
2013-01-09 04:48:00,15.6,13.2,30.38,SW,215,4.0,5.0,90,0.00,,,0.00,Wunderground v.1.15,2013-01-09 09:48:00,
2013-01-09 04:54:00,16.5,14.3,30.38,SW,228,5.0,6.0,91,0.00,,,0.00,Wunderground v.1.15,2013-01-09 09:54:00,
2013-01-09 05:00:00,17.8,15.9,30.38,SW,228,4.0,4.0,92,0.00,,,0.00,Wunderground v.1.15,2013-01-09 10:00:00,
2013-01-09 05:06:00,17.5,15.6,30.38,SW,223,4.0,5.0,92,0.00,,,0.00,Wunderground v.1.15,2013-01-09 10:06:00,
2013-01-09 05:12:00,17.8,15.6,30.38,SW,236,4.0,5.0,91,0.00,,,0.00,Wunderground v.1.15,2013-01-09 10:12:00,
2013-01-09 05:18:00,18.3,16.4,30.37,SW,234,4.0,5.0,92,0.00,,,0.00,Wunderground v.1.15,2013-01-09 10:18:00,
2013-01-09 05:24:00,17.9,15.7,30.37,SW,236,4.0,5.0,91,0.00,,,0.00,Wunderground v.1.15,2013-01-09 10:24:00,
2013-01-09 05:30:00,17.6,15.4,30.38,SW,226,4.0,4.0,91,0.00,,,0.00,Wunderground v.1.15,2013-01-09 10:30:00,
2013-01-09 05:36:00,17.6,15.4,30.38,SW,229,5.0,5.0,91,0.00,,,0.00,Wunderground v.1.15,2013-01-09 10:36:00,
2013-01-09 05:42:00,18.1,15.9,30.38,WSW,239,5.0,5.0,91,0.00,,,0.00,Wunderground v.1.15,2013-01-09 10:42:00,
2013-01-09 05:48:00,18.4,16.5,30.37,SW,220,4.0,5.0,92,0.00,,,0.00,Wunderground v.1.15,2013-01-09 10:48:00,
2013-01-09 05:54:00,18.1,15.9,30.37,SW,231,4.0,4.0,91,0.00,,,0.00,Wunderground v.1.15,2013-01-09 10:54:00,
2013-01-09 06:00:00,17.7,15.5,30.37,SW,228,3.0,3.0,91,0.00,,,0.00,Wunderground v.1.15,2013-01-09 11:00:00,
2013-01-09 06:06:00,17.3,14.9,30.37,SW,226,3.0,4.0,90,0.00,,,0.00,Wunderground v.1.15,2013-01-09 11:06:00,
2013-01-09 06:12:00,17.1,14.7,30.37,SW,225,3.0,4.0,90,0.00,,,0.00,Wunderground v.1.15,2013-01-09 11:12:00,
2013-01-09 06:18:00,17.3,15.1,30.37,SW,220,4.0,5.0,91,0.00,,,0.00,Wunderground v.1.15,2013-01-09 11:18:00,
2013-01-09 06:24:00,17.7,15.5,30.37,SW,235,4.0,4.0,91,0.00,,,0.00,Wunderground v.1.15,2013-01-09 11:24:00,
2013-01-09 06:30:00,18.2,16.0,30.37,SW,227,4.0,5.0,91,0.00,,,0.00,Wunderground v.1.15,2013-01-09 11:30:00,
2013-01-09 06:36:00,18.6,16.7,30.37,SSW,211,5.0,5.0,92,0.00,,,0.00,Wunderground v.1.15,2013-01-09 11:36:00,
2013-01-09 06:42:00,18.7,16.5,30.37,SW,216,5.0,7.0,91,0.00,,,0.00,Wunderground v.1.15,2013-01-09 11:42:00,
2013-01-09 06:48:00,18.9,17.0,30.37,SW,215,5.0,7.0,92,0.00,,,0.00,Wunderground v.1.15,2013-01-09 11:48:00,
2013-01-09 06:54:00,18.9,16.7,30.37,SW,216,5.0,5.0,91,0.00,,,0.00,Wunderground v.1.15,2013-01-09 11:54:00,
2013-01-09 07:00:00,18.8,16.6,30.36,SW,215,4.0,4.0,91,0.00,,,0.00,Wunderground v.1.15,2013-01-09 12:00:00,
2013-01-09 07:06:00,18.8,16.6,30.36,SW,221,4.0,4.0,91,0.00,,,0.00,Wunderground v.1.15,2013-01-09 12:06:00,
2013-01-09 07:12:00,18.7,16.5,30.36,SW,218,4.0,5.0,91,0.00,,,0.00,Wunderground v.1.15,2013-01-09 12:12:00,
2013-01-09 07:18:00,18.6,16.4,30.36,SSW,213,4.0,5.0,91,0.00,,,0.00,Wunderground v.1.15,2013-01-09 12:18:00,
2013-01-09 07:24:00,18.5,16.3,30.35,SW,225,4.0,4.0,91,0.00,,,0.00,Wunderground v.1.15,2013-01-09 12:24:00,
2013-01-09 07:30:00,18.5,16.3,30.36,SW,221,4.0,5.0,91,0.00,,,0.00,Wunderground v.1.15,2013-01-09 12:30:00,
2013-01-09 07:36:00,18.6,16.4,30.36,SW,230,5.0,5.0,91,0.00,,,0.00,Wunderground v.1.15,2013-01-09 12:36:00,
2013-01-09 07:42:00,18.9,16.7,30.35,SW,221,5.0,5.0,91,0.00,,,0.00,Wunderground v.1.15,2013-01-09 12:42:00,
2013-01-09 07:48:00,19.0,16.8,30.36,WSW,244,5.0,6.0,91,0.00,,,0.00,Wunderground v.1.15,2013-01-09 12:48:00,
2013-01-09 07:54:00,19.2,17.0,30.36,SSW,196,4.0,7.0,91,0.00,,,0.00,Wunderground v.1.15,2013-01-09 12:54:00,
2013-01-09 08:00:00,19.3,17.1,30.37,SSW,204,6.0,6.0,91,0.00,,,0.00,Wunderground v.1.15,2013-01-09 13:00:00,
2013-01-09 08:06:00,19.3,17.1,30.37,SW,222,6.0,6.0,91,0.00,,,0.00,Wunderground v.1.15,2013-01-09 13:06:00,
2013-01-09 08:12:00,19.5,17.3,30.38,SW,219,5.0,6.0,91,0.00,,,0.00,Wunderground v.1.15,2013-01-09 13:12:00,
2013-01-09 08:18:00,19.5,17.3,30.38,SW,221,5.0,6.0,91,0.00,,,0.00,Wunderground v.1.15,2013-01-09 13:18:00,
2013-01-09 08:24:00,19.7,17.5,30.38,SW,215,5.0,7.0,91,0.00,,,0.00,Wunderground v.1.15,2013-01-09 13:24:00,
2013-01-09 08:30:00,19.9,17.7,30.38,SW,215,3.0,3.0,91,0.00,,,0.00,Wunderground v.1.15,2013-01-09 13:30:00,
2013-01-09 08:36:00,20.0,17.8,30.37,SW,215,1.0,3.0,91,0.00,,,0.00,Wunderground v.1.15,2013-01-09 13:36:00,
2013-01-09 08:42:00,20.2,18.0,30.39,SW,217,1.0,3.0,91,0.00,,,0.00,Wunderground v.1.15,2013-01-09 13:42:00,
2013-01-09 08:48:00,20.6,18.6,30.39,SW,229,2.0,4.0,92,0.00,,,0.00,Wunderground v.1.15,2013-01-09 13:48:00,
2013-01-09 08:54:00,20.7,18.5,30.38,SW,229,3.0,5.0,91,0.00,,,0.00,Wunderground v.1.15,2013-01-09 13:54:00,
2013-01-09 09:00:00,21.0,18.8,30.37,SW,227,2.0,2.0,91,0.00,,,0.00,Wunderground v.1.15,2013-01-09 14:00:00,
2013-01-09 09:06:00,21.4,19.4,30.37,SW,223,1.0,4.0,92,0.00,,,0.00,Wunderground v.1.15,2013-01-09 14:06:00,
2013-01-09 09:12:00,21.9,19.9,30.37,SW,229,3.0,3.0,92,0.00,,,0.00,Wunderground v.1.15,2013-01-09 14:12:00,
2013-01-09 09:18:00,22.5,20.5,30.37,WSW,257,3.0,4.0,92,0.00,,,0.00,Wunderground v.1.15,2013-01-09 14:18:00,
2013-01-09 09:24:00,22.7,20.5,30.37,SW,234,3.0,4.0,91,0.00,,,0.00,Wunderground v.1.15,2013-01-09 14:24:00,
2013-01-09 09:30:00,23.2,21.0,30.37,SW,232,5.0,8.0,91,0.00,,,0.00,Wunderground v.1.15,2013-01-09 14:30:00,
2013-01-09 09:36:00,23.7,21.5,30.36,SW,236,5.0,8.0,91,0.00,,,0.00,Wunderground v.1.15,2013-01-09 14:36:00,
2013-01-09 09:42:00,23.8,21.6,30.36,SW,234,5.0,7.0,91,0.00,,,0.00,Wunderground v.1.15,2013-01-09 14:42:00,
2013-01-09 09:48:00,24.0,21.5,30.35,SW,230,5.0,7.0,90,0.00,,,0.00,Wunderground v.1.15,2013-01-09 14:48:00,
2013-01-09 09:54:00,24.1,21.6,30.36,WSW,243,6.0,6.0,90,0.00,,,0.00,Wunderground v.1.15,2013-01-09 14:54:00,
2013-01-09 10:00:00,24.3,21.8,30.37,SSW,211,5.0,6.0,90,0.00,,,0.00,Wunderground v.1.15,2013-01-09 15:00:00,
2013-01-09 10:06:00,24.7,22.4,30.37,SW,222,4.0,7.0,91,0.00,,,0.00,Wunderground v.1.15,2013-01-09 15:06:00,
2013-01-09 10:12:00,25.4,22.9,30.36,SSW,196,6.0,7.0,90,0.00,,,0.00,Wunderground v.1.15,2013-01-09 15:12:00,
2013-01-09 10:18:00,26.0,23.5,30.36,SSW,205,7.0,7.0,90,0.00,,,0.00,Wunderground v.1.15,2013-01-09 15:18:00,
2013-01-09 10:24:00,26.8,24.0,30.36,SSW,209,7.0,7.0,89,0.00,,,0.00,Wunderground v.1.15,2013-01-09 15:24:00,
2013-01-09 10:30:00,27.8,25.0,30.37,SSW,211,7.0,7.0,89,0.00,,,0.00,Wunderground v.1.15,2013-01-09 15:30:00,
2013-01-09 10:36:00,28.6,25.5,30.37,SW,214,7.0,9.0,88,0.00,,,0.00,Wunderground v.1.15,2013-01-09 15:36:00,
2013-01-09 10:42:00,29.2,25.8,30.37,SW,217,8.0,8.0,87,0.00,,,0.00,Wunderground v.1.15,2013-01-09 15:42:00,
2013-01-09 10:48:00,29.8,26.4,30.37,SSW,205,7.0,8.0,87,0.00,,,0.00,Wunderground v.1.15,2013-01-09 15:48:00,
2013-01-09 10:54:00,30.3,26.6,30.36,SSW,203,7.0,8.0,86,0.00,,,0.00,Wunderground v.1.15,2013-01-09 15:54:00,
2013-01-09 11:00:00,31.0,27.3,30.36,SW,236,6.0,6.0,86,0.00,,,0.00,Wunderground v.1.15,2013-01-09 16:00:00,
2013-01-09 11:06:00,31.4,27.4,30.37,WSW,238,6.0,8.0,85,0.00,,,0.01,Wunderground v.1.15,2013-01-09 16:06:00,
2013-01-09 11:12:00,31.9,27.6,30.36,WSW,238,6.0,9.0,84,0.00,,,0.01,Wunderground v.1.15,2013-01-09 16:12:00,
2013-01-09 11:18:00,32.2,27.6,30.36,WSW,237,6.0,9.0,83,0.00,,,0.01,Wunderground v.1.15,2013-01-09 16:18:00,
2013-01-09 11:24:00,32.5,27.9,30.37,SW,224,5.0,7.0,83,0.00,,,0.01,Wunderground v.1.15,2013-01-09 16:24:00,
2013-01-09 11:30:00,32.6,28.0,30.35,SSW,207,6.0,7.0,83,0.00,,,0.01,Wunderground v.1.15,2013-01-09 16:30:00,
2013-01-09 11:36:00,32.5,27.9,30.34,WSW,257,6.0,7.0,83,0.00,,,0.01,Wunderground v.1.15,2013-01-09 16:36:00,
2013-01-09 11:42:00,32.4,27.8,30.34,SW,232,6.0,6.0,83,0.00,,,0.01,Wunderground v.1.15,2013-01-09 16:42:00,
2013-01-09 11:48:00,32.5,28.2,30.33,SSW,212,5.0,6.0,84,0.00,,,0.01,Wunderground v.1.15,2013-01-09 16:48:00,
2013-01-09 11:54:00,32.6,28.3,30.31,SW,234,6.0,10.0,84,0.00,,,0.01,Wunderground v.1.15,2013-01-09 16:54:00,
2013-01-09 12:00:00,32.9,28.6,30.30,SW,222,8.0,8.0,84,0.00,,,0.01,Wunderground v.1.15,2013-01-09 17:00:00,
2013-01-09 12:06:00,33.4,29.4,30.28,SW,215,6.0,8.0,85,0.00,,,0.01,Wunderground v.1.15,2013-01-09 17:06:00,
2013-01-09 12:12:00,33.9,29.6,30.28,WSW,241,6.0,12.0,84,0.00,,,0.01,Wunderground v.1.15,2013-01-09 17:12:00,
2013-01-09 12:18:00,33.9,29.0,30.27,SW,228,8.0,12.0,82,0.00,,,0.01,Wunderground v.1.15,2013-01-09 17:18:00,
2013-01-09 12:24:00,34.1,29.5,30.27,SW,221,7.0,8.0,83,0.00,,,0.01,Wunderground v.1.15,2013-01-09 17:24:00,
2013-01-09 12:30:00,34.8,30.2,30.26,SSW,200,6.0,6.0,83,0.00,,,0.01,Wunderground v.1.15,2013-01-09 17:30:00,
2013-01-09 12:36:00,35.6,30.6,30.26,SW,214,6.0,6.0,82,0.00,,,0.01,Wunderground v.1.15,2013-01-09 17:36:00,
2013-01-09 12:42:00,36.0,30.7,30.25,South,178,4.0,5.0,81,0.00,,,0.01,Wunderground v.1.15,2013-01-09 17:42:00,
2013-01-09 12:48:00,35.7,30.4,30.26,South,189,4.0,7.0,81,0.00,,,0.01,Wunderground v.1.15,2013-01-09 17:48:00,
2013-01-09 12:54:00,35.7,30.7,30.25,SSW,192,4.0,4.0,82,0.00,,,0.01,Wunderground v.1.15,2013-01-09 17:54:00,
2013-01-09 13:00:00,36.1,30.8,30.25,SW,220,4.0,4.0,81,0.00,,,0.01,Wunderground v.1.15,2013-01-09 18:00:00,
2013-01-09 13:06:00,36.2,30.9,30.25,WSW,241,4.0,4.0,81,0.00,,,0.01,Wunderground v.1.15,2013-01-09 18:06:00,
2013-01-09 13:12:00,36.3,31.0,30.26,SW,219,3.0,3.0,81,0.00,,,0.01,Wunderground v.1.15,2013-01-09 18:12:00,
2013-01-09 13:18:00,36.5,31.2,30.25,SSW,207,3.0,4.0,81,0.00,,,0.01,Wunderground v.1.15,2013-01-09 18:18:00,
2013-01-09 13:24:00,36.7,31.1,30.26,SSW,207,2.0,3.0,80,0.00,,,0.01,Wunderground v.1.15,2013-01-09 18:24:00,
2013-01-09 13:30:00,36.8,31.5,30.26,SSW,209,1.0,1.0,81,0.00,,,0.01,Wunderground v.1.15,2013-01-09 18:30:00,
2013-01-09 13:36:00,36.8,31.5,30.26,SSW,207,0.0,1.0,81,0.00,,,0.01,Wunderground v.1.15,2013-01-09 18:36:00,
2013-01-09 13:42:00,37.0,32.0,30.26,SSW,196,1.0,2.0,82,0.00,,,0.01,Wunderground v.1.15,2013-01-09 18:42:00,
2013-01-09 13:44:00,37.1,32.1,30.26,SSW,196,1.0,2.0,82,0.00,,,0.01,Wunderground v.1.15,2013-01-09 18:44:00,
2013-01-09 13:46:00,37.2,32.2,30.26,SSW,196,1.0,2.0,82,0.00,,,0.01,Wunderground v.1.15,2013-01-09 18:46:00,
2013-01-09 13:48:00,37.2,32.2,30.26,SSW,196,1.0,2.0,82,0.00,,,0.01,Wunderground v.1.15,2013-01-09 18:48:00,
2013-01-09 13:50:00,37.3,32.3,30.26,SSW,196,1.0,1.0,82,0.00,,,0.01,Wunderground v.1.15,2013-01-09 18:50:00,
2013-01-09 13:54:00,37.3,32.3,30.26,SSW,198,1.0,2.0,82,0.00,,,0.01,Wunderground v.1.15,2013-01-09 18:54:00,
2013-01-09 13:56:00,37.4,32.4,30.26,SSW,198,1.0,2.0,82,0.00,,,0.01,Wunderground v.1.15,2013-01-09 18:56:00,
2013-01-09 14:02:00,37.7,32.7,30.27,SSW,199,1.0,1.0,82,0.00,,,0.01,Wunderground v.1.15,2013-01-09 19:02:00,
2013-01-09 14:08:00,37.8,33.1,30.27,WSW,248,1.0,2.0,83,0.00,,,0.01,Wunderground v.1.15,2013-01-09 19:08:00,
2013-01-09 14:14:00,37.7,33.3,30.26,SSE,153,2.0,5.0,84,0.00,,,0.01,Wunderground v.1.15,2013-01-09 19:14:00,
2013-01-09 14:20:00,36.7,32.9,30.27,SSW,213,2.0,6.0,86,0.00,,,0.01,Wunderground v.1.15,2013-01-09 19:20:00,
2013-01-09 14:26:00,36.4,33.5,30.27,SSW,198,3.0,6.0,89,0.00,,,0.01,Wunderground v.1.15,2013-01-09 19:26:00,
2013-01-09 14:32:00,37.0,34.3,30.26,South,181,4.0,8.0,90,0.00,,,0.01,Wunderground v.1.15,2013-01-09 19:32:00,
2013-01-09 14:38:00,38.1,35.7,30.26,South,185,7.0,22.0,91,0.00,,,0.01,Wunderground v.1.15,2013-01-09 19:38:00,
2013-01-09 14:44:00,40.8,38.1,30.26,SSW,207,11.0,13.0,90,0.00,,,0.01,Wunderground v.1.15,2013-01-09 19:44:00,
2013-01-09 14:50:00,42.8,39.2,30.26,SSW,198,10.0,10.0,87,0.00,,,0.01,Wunderground v.1.15,2013-01-09 19:50:00,
2013-01-09 14:56:00,43.7,39.8,30.26,SSW,194,8.0,10.0,86,0.00,,,0.01,Wunderground v.1.15,2013-01-09 19:56:00,
2013-01-09 15:02:00,44.1,39.9,30.26,SSW,205,8.0,8.0,85,0.00,,,0.01,Wunderground v.1.15,2013-01-09 20:02:00,
2013-01-09 15:08:00,44.6,40.4,30.26,SSW,213,8.0,10.0,85,0.00,,,0.01,Wunderground v.1.15,2013-01-09 20:08:00,
2013-01-09 15:14:00,45.8,40.9,30.26,SW,229,9.0,12.0,83,0.00,,,0.01,Wunderground v.1.15,2013-01-09 20:14:00,
2013-01-09 15:20:00,46.5,40.7,30.27,SW,225,11.0,15.0,80,0.00,,,0.01,Wunderground v.1.15,2013-01-09 20:20:00,
2013-01-09 15:26:00,46.7,40.5,30.27,WSW,243,12.0,15.0,79,0.00,,,0.01,Wunderground v.1.15,2013-01-09 20:26:00,
2013-01-09 15:32:00,46.8,40.3,30.27,SW,236,11.0,16.0,78,0.00,,,0.01,Wunderground v.1.15,2013-01-09 20:32:00,
2013-01-09 15:38:00,46.8,40.0,30.27,South,186,11.0,16.0,77,0.00,,,0.01,Wunderground v.1.15,2013-01-09 20:38:00,
2013-01-09 15:44:00,46.8,39.6,30.26,SW,223,11.0,11.0,76,0.00,,,0.01,Wunderground v.1.15,2013-01-09 20:44:00,
2013-01-09 15:50:00,46.8,39.6,30.26,South,180,11.0,11.0,76,0.00,,,0.01,Wunderground v.1.15,2013-01-09 20:50:00,
2013-01-09 15:56:00,46.8,39.6,30.26,SSW,206,10.0,12.0,76,0.00,,,0.01,Wunderground v.1.15,2013-01-09 20:56:00,
2013-01-09 16:02:00,46.7,39.2,30.26,SSW,201,8.0,8.0,75,0.00,,,0.01,Wunderground v.1.15,2013-01-09 21:02:00,
2013-01-09 16:08:00,46.5,38.7,30.27,SSW,195,8.0,13.0,74,0.00,,,0.01,Wunderground v.1.15,2013-01-09 21:08:00,
2013-01-09 16:14:00,46.5,38.3,30.27,SSW,194,9.0,10.0,73,0.00,,,0.01,Wunderground v.1.15,2013-01-09 21:14:00,
2013-01-09 16:20:00,46.3,38.1,30.27,South,191,7.0,7.0,73,0.00,,,0.01,Wunderground v.1.15,2013-01-09 21:20:00,
2013-01-09 16:26:00,46.2,37.7,30.27,SSW,198,7.0,7.0,72,0.00,,,0.01,Wunderground v.1.15,2013-01-09 21:26:00,
2013-01-09 16:32:00,46.1,37.6,30.28,SW,236,8.0,13.0,72,0.00,,,0.01,Wunderground v.1.15,2013-01-09 21:32:00,
2013-01-09 16:38:00,46.0,37.1,30.28,SSW,196,9.0,13.0,71,0.00,,,0.01,Wunderground v.1.15,2013-01-09 21:38:00,
2013-01-09 16:44:00,46.0,37.1,30.28,South,182,9.0,16.0,71,0.00,,,0.01,Wunderground v.1.15,2013-01-09 21:44:00,
2013-01-09 16:50:00,45.9,36.7,30.28,SSW,194,10.0,10.0,70,0.00,,,0.01,Wunderground v.1.15,2013-01-09 21:50:00,
2013-01-09 16:56:00,45.6,36.4,30.28,South,190,9.0,13.0,70,0.00,,,0.01,Wunderground v.1.15,2013-01-09 21:56:00,
2013-01-09 17:02:00,45.1,35.9,30.28,South,183,8.0,13.0,70,0.00,,,0.01,Wunderground v.1.15,2013-01-09 22:02:00,
2013-01-09 17:08:00,45.1,35.9,30.27,South,182,9.0,13.0,70,0.00,,,0.01,Wunderground v.1.15,2013-01-09 22:08:00,
2013-01-09 17:14:00,45.1,35.9,30.29,SSW,211,9.0,10.0,70,0.00,,,0.01,Wunderground v.1.15,2013-01-09 22:14:00,
2013-01-09 17:20:00,45.2,36.0,30.30,WSW,245,9.0,15.0,70,0.00,,,0.01,Wunderground v.1.15,2013-01-09 22:20:00,
2013-01-09 17:26:00,45.1,35.9,30.29,SSW,199,9.0,15.0,70,0.00,,,0.01,Wunderground v.1.15,2013-01-09 22:26:00,
2013-01-09 17:32:00,44.4,35.6,30.30,SSW,209,8.0,11.0,71,0.00,,,0.01,Wunderground v.1.15,2013-01-09 22:32:00,
2013-01-09 17:38:00,44.1,35.6,30.29,SSW,209,9.0,11.0,72,0.00,,,0.01,Wunderground v.1.15,2013-01-09 22:38:00,
2013-01-09 17:44:00,44.4,35.6,30.30,SSW,202,8.0,10.0,71,0.00,,,0.01,Wunderground v.1.15,2013-01-09 22:44:00,
2013-01-09 17:50:00,44.4,35.6,30.30,SW,216,7.0,11.0,71,0.00,,,0.01,Wunderground v.1.15,2013-01-09 22:50:00,
2013-01-09 17:56:00,44.5,35.3,30.30,WSW,239,8.0,11.0,70,0.00,,,0.01,Wunderground v.1.15,2013-01-09 22:56:00,
2013-01-09 18:02:00,45.2,35.3,30.30,SW,223,9.0,13.0,68,0.00,,,0.01,Wunderground v.1.15,2013-01-09 23:02:00,
2013-01-09 18:08:00,45.5,35.2,30.30,SSW,209,11.0,14.0,67,0.00,,,0.01,Wunderground v.1.15,2013-01-09 23:08:00,
2013-01-09 18:14:00,45.4,35.1,30.31,WSW,238,11.0,12.0,67,0.00,,,0.01,Wunderground v.1.15,2013-01-09 23:14:00,
2013-01-09 18:20:00,45.4,35.1,30.30,SSW,200,10.0,10.0,67,0.00,,,0.01,Wunderground v.1.15,2013-01-09 23:20:00,
2013-01-09 18:26:00,45.4,35.5,30.30,SW,227,9.0,10.0,68,0.00,,,0.01,Wunderground v.1.15,2013-01-09 23:26:00,
2013-01-09 18:32:00,45.5,35.2,30.31,WSW,242,11.0,17.0,67,0.00,,,0.01,Wunderground v.1.15,2013-01-09 23:32:00,
2013-01-09 18:38:00,45.6,34.9,30.31,West,269,13.0,19.0,66,0.00,,,0.01,Wunderground v.1.15,2013-01-09 23:38:00,
2013-01-09 18:44:00,45.8,34.7,30.31,WSW,238,12.0,18.0,65,0.00,,,0.01,Wunderground v.1.15,2013-01-09 23:44:00,
2013-01-09 18:50:00,46.0,34.1,30.31,SW,226,13.0,13.0,63,0.00,,,0.01,Wunderground v.1.15,2013-01-09 23:50:00,
2013-01-09 18:56:00,46.0,34.1,30.31,WSW,238,12.0,13.0,63,0.00,,,0.01,Wunderground v.1.15,2013-01-09 23:56:00,
2013-01-09 19:02:00,46.0,34.1,30.31,WSW,249,12.0,20.0,63,0.00,,,0.01,Wunderground v.1.15,2013-01-10 00:02:00,
2013-01-09 19:08:00,46.2,33.9,30.31,WSW,244,14.0,20.0,62,0.00,,,0.01,Wunderground v.1.15,2013-01-10 00:08:00,
2013-01-09 19:14:00,46.2,34.3,30.31,WSW,238,14.0,19.0,63,0.00,,,0.01,Wunderground v.1.15,2013-01-10 00:14:00,
2013-01-09 19:20:00,46.1,34.2,30.31,SW,236,15.0,15.0,63,0.00,,,0.01,Wunderground v.1.15,2013-01-10 00:20:00,
2013-01-09 19:26:00,45.9,34.4,30.31,WSW,254,13.0,18.0,64,0.00,,,0.01,Wunderground v.1.15,2013-01-10 00:26:00,
2013-01-09 19:32:00,45.8,34.3,30.31,SW,229,11.0,11.0,64,0.00,,,0.01,Wunderground v.1.15,2013-01-10 00:32:00,
2013-01-09 19:38:00,45.9,34.4,30.32,SW,236,14.0,20.0,64,0.00,,,0.01,Wunderground v.1.15,2013-01-10 00:38:00,
2013-01-09 19:44:00,45.8,34.3,30.32,West,279,16.0,25.0,64,0.00,,,0.01,Wunderground v.1.15,2013-01-10 00:44:00,
2013-01-09 19:50:00,45.9,34.0,30.32,West,274,16.0,16.0,63,0.00,,,0.01,Wunderground v.1.15,2013-01-10 00:50:00,
2013-01-09 19:56:00,45.8,33.9,30.32,West,261,20.0,30.0,63,0.00,,,0.01,Wunderground v.1.15,2013-01-10 00:56:00,
2013-01-09 20:02:00,45.9,33.2,30.32,West,268,23.0,23.0,61,0.00,,,0.01,Wunderground v.1.15,2013-01-10 01:02:00,
2013-01-09 20:08:00,45.8,33.1,30.33,West,269,21.0,29.0,61,0.00,,,0.01,Wunderground v.1.15,2013-01-10 01:08:00,
2013-01-09 20:14:00,45.7,32.6,30.33,WNW,284,18.0,30.0,60,0.00,,,0.01,Wunderground v.1.15,2013-01-10 01:14:00,
2013-01-09 20:20:00,45.9,31.9,30.33,WSW,237,22.0,22.0,58,0.00,,,0.01,Wunderground v.1.15,2013-01-10 01:20:00,
2013-01-09 20:26:00,45.9,32.8,30.33,West,262,22.0,31.0,60,0.00,,,0.01,Wunderground v.1.15,2013-01-10 01:26:00,
2013-01-09 20:32:00,45.6,32.1,30.34,WSW,243,20.0,29.0,59,0.00,,,0.01,Wunderground v.1.15,2013-01-10 01:32:00,
2013-01-09 20:38:00,45.6,32.5,30.34,WNW,303,20.0,31.0,60,0.00,,,0.01,Wunderground v.1.15,2013-01-10 01:38:00,
2013-01-09 20:44:00,45.6,32.1,30.34,WSW,245,20.0,21.0,59,0.00,,,0.01,Wunderground v.1.15,2013-01-10 01:44:00,
2013-01-09 20:50:00,45.3,31.8,30.34,WSW,254,18.0,19.0,59,0.00,,,0.01,Wunderground v.1.15,2013-01-10 01:50:00,
2013-01-09 20:56:00,45.4,31.5,30.34,WSW,240,19.0,26.0,58,0.00,,,0.01,Wunderground v.1.15,2013-01-10 01:56:00,
2013-01-09 21:02:00,45.4,31.5,30.34,West,267,16.0,24.0,58,0.00,,,0.01,Wunderground v.1.15,2013-01-10 02:02:00,
2013-01-09 21:08:00,45.3,30.5,30.33,WSW,242,15.0,24.0,56,0.00,,,0.01,Wunderground v.1.15,2013-01-10 02:08:00,
2013-01-09 21:14:00,45.2,30.9,30.34,SW,233,16.0,17.0,57,0.00,,,0.01,Wunderground v.1.15,2013-01-10 02:14:00,
2013-01-09 21:20:00,45.0,30.7,30.35,West,267,13.0,30.0,57,0.00,,,0.01,Wunderground v.1.15,2013-01-10 02:20:00,
2013-01-09 21:26:00,45.1,30.3,30.35,West,279,15.0,30.0,56,0.00,,,0.01,Wunderground v.1.15,2013-01-10 02:26:00,
2013-01-09 21:32:00,45.0,30.7,30.36,WNW,284,14.0,15.0,57,0.00,,,0.01,Wunderground v.1.15,2013-01-10 02:32:00,
2013-01-09 21:38:00,44.8,30.9,30.35,SW,232,15.0,29.0,58,0.00,,,0.01,Wunderground v.1.15,2013-01-10 02:38:00,
2013-01-09 21:44:00,44.7,30.8,30.36,SW,215,16.0,16.0,58,0.00,,,0.01,Wunderground v.1.15,2013-01-10 02:44:00,
2013-01-09 21:50:00,44.4,30.5,30.36,SSE,153,12.0,12.0,58,0.00,,,0.01,Wunderground v.1.15,2013-01-10 02:50:00,
2013-01-09 21:56:00,44.3,30.4,30.37,WSW,254,13.0,23.0,58,0.00,,,0.01,Wunderground v.1.15,2013-01-10 02:56:00,
2013-01-09 22:02:00,44.3,30.0,30.38,SW,219,11.0,13.0,57,0.00,,,0.01,Wunderground v.1.15,2013-01-10 03:02:00,
2013-01-09 22:08:00,44.2,30.3,30.38,West,272,8.0,22.0,58,0.00,,,0.01,Wunderground v.1.15,2013-01-10 03:08:00,
2013-01-09 22:14:00,44.1,30.3,30.39,SW,220,10.0,10.0,58,0.00,,,0.01,Wunderground v.1.15,2013-01-10 03:14:00,
2013-01-09 22:20:00,43.8,30.0,30.39,SSE,167,11.0,11.0,58,0.00,,,0.01,Wunderground v.1.15,2013-01-10 03:20:00,
2013-01-09 22:26:00,43.8,30.0,30.40,WNW,288,9.0,12.0,58,0.00,,,0.01,Wunderground v.1.15,2013-01-10 03:26:00,
2013-01-09 22:32:00,43.7,29.9,30.40,West,271,7.0,7.0,58,0.00,,,0.01,Wunderground v.1.15,2013-01-10 03:32:00,
2013-01-09 22:38:00,43.5,29.7,30.40,WNW,289,8.0,12.0,58,0.00,,,0.01,Wunderground v.1.15,2013-01-10 03:38:00,
2013-01-09 22:44:00,43.3,29.9,30.40,SW,224,7.0,14.0,59,0.00,,,0.01,Wunderground v.1.15,2013-01-10 03:44:00,
2013-01-09 22:50:00,43.0,30.1,30.41,SW,228,7.0,14.0,60,0.00,,,0.01,Wunderground v.1.15,2013-01-10 03:50:00,
2013-01-09 22:56:00,42.9,30.0,30.41,SSW,192,7.0,14.0,60,0.00,,,0.01,Wunderground v.1.15,2013-01-10 03:56:00,
2013-01-09 23:02:00,42.5,29.6,30.41,SW,223,5.0,6.0,60,0.00,,,0.01,Wunderground v.1.15,2013-01-10 04:02:00,
2013-01-09 23:08:00,42.4,29.5,30.41,SSW,204,6.0,7.0,60,0.00,,,0.01,Wunderground v.1.15,2013-01-10 04:08:00,
2013-01-09 23:14:00,42.4,29.1,30.41,WSW,247,6.0,20.0,59,0.00,,,0.01,Wunderground v.1.15,2013-01-10 04:14:00,
2013-01-09 23:20:00,42.9,29.5,30.41,South,178,8.0,8.0,59,0.00,,,0.01,Wunderground v.1.15,2013-01-10 04:20:00,
2013-01-09 23:26:00,42.5,28.8,30.42,SW,232,8.0,12.0,58,0.00,,,0.01,Wunderground v.1.15,2013-01-10 04:26:00,
2013-01-09 23:32:00,42.6,28.8,30.41,West,264,7.0,8.0,58,0.00,,,0.01,Wunderground v.1.15,2013-01-10 04:32:00,
2013-01-09 23:38:00,42.4,28.7,30.42,WSW,243,6.0,8.0,58,0.00,,,0.01,Wunderground v.1.15,2013-01-10 04:38:00,
2013-01-09 23:44:00,42.2,28.9,30.42,South,184,5.0,6.0,59,0.00,,,0.01,Wunderground v.1.15,2013-01-10 04:44:00,
2013-01-09 23:50:00,41.8,28.5,30.42,SW,234,7.0,11.0,59,0.00,,,0.01,Wunderground v.1.15,2013-01-10 04:50:00,
2013-01-09 23:56:00,42.0,28.7,30.42,SSW,194,9.0,11.0,59,0.00,,,0.01,Wunderground v.1.15,2013-01-10 04:56:00,